createdAt,value
2022-07-31T04:32:50.327Z,17.20
2022-07-31T04:35:17.232Z,17.20
2022-07-31T04:37:48.464Z,17.10
2022-07-31T04:40:16.043Z,17.10
2022-07-31T04:42:42.932Z,17.10
2022-07-31T04:45:10.046Z,17.10
2022-07-31T04:47:37.285Z,17.10
2022-07-31T04:50:05.029Z,17.20
2022-07-31T04:52:32.771Z,17.20
2022-07-31T04:54:59.501Z,17.30
2022-07-31T04:57:26.476Z,17.30
2022-07-31T05:00:00.417Z,17.40
2022-07-31T05:02:28.619Z,17.40
2022-07-31T05:04:56.878Z,17.40
2022-07-31T05:07:27.561Z,17.40
2022-07-31T05:09:56.050Z,17.40
2022-07-31T05:12:22.822Z,17.40
2022-07-31T05:14:49.593Z,17.50
2022-07-31T05:17:16.486Z,17.50
2022-07-31T05:19:43.277Z,17.50
2022-07-31T05:22:11.509Z,17.60
2022-07-31T05:24:38.567Z,17.70
2022-07-31T05:27:05.390Z,17.70
2022-07-31T05:29:33.049Z,17.80
2022-07-31T05:32:01.271Z,17.90
2022-07-31T05:34:31.462Z,17.90
2022-07-31T05:37:01.074Z,18.00
2022-07-31T05:39:28.674Z,18.00
2022-07-31T05:41:55.476Z,18.00
2022-07-31T05:44:22.215Z,18.10
2022-07-31T05:49:15.742Z,18.30
2022-07-31T05:51:46.624Z,18.30
2022-07-31T05:54:13.850Z,18.40
2022-07-31T05:56:40.758Z,18.50
2022-07-31T05:59:07.503Z,18.50
2022-07-31T06:01:34.356Z,18.60
2022-07-31T06:04:02.524Z,18.60
2022-07-31T06:06:29.338Z,18.70
2022-07-31T06:09:00.640Z,18.80
2022-07-31T06:11:30.278Z,18.90
2022-07-31T06:13:57.062Z,18.90
2022-07-31T06:16:23.783Z,19.00
2022-07-31T06:18:50.864Z,19.10
2022-07-31T06:23:43.340Z,19.30
2022-07-31T06:26:12.136Z,19.40
2022-07-31T06:28:48.120Z,19.40
2022-07-31T06:31:18.040Z,19.60
2022-07-31T06:33:48.143Z,19.60
2022-07-31T06:36:16.844Z,19.80
2022-07-31T06:38:43.659Z,19.80
2022-07-31T06:41:10.572Z,19.90
2022-07-31T06:43:37.494Z,19.90
2022-07-31T06:46:04.227Z,20.00
2022-07-31T06:48:31.033Z,20.10
2022-07-31T06:53:44.583Z,20.30
2022-07-31T06:56:11.449Z,20.40
2022-07-31T06:58:38.233Z,20.50
2022-07-31T07:01:05.061Z,20.60
2022-07-31T07:03:31.993Z,20.70
2022-07-31T07:05:58.868Z,20.80
2022-07-31T07:08:25.863Z,21.00
2022-07-31T07:10:52.598Z,21.10
2022-07-31T07:13:19.388Z,21.20
2022-07-31T07:15:46.238Z,21.20
2022-07-31T07:18:13.293Z,21.20
2022-07-31T07:20:40.095Z,21.40
2022-07-31T07:23:06.906Z,21.60
2022-07-31T07:25:33.622Z,21.70
2022-07-31T07:28:00.683Z,21.90
2022-07-31T07:30:28.827Z,22.10
2022-07-31T07:32:55.629Z,22.30
2022-07-31T07:35:22.548Z,22.50
2022-07-31T07:37:49.441Z,22.60
2022-07-31T07:40:17.149Z,22.70
2022-07-31T07:42:44.534Z,22.70
2022-07-31T07:45:12.137Z,22.70
2022-07-31T07:47:54.118Z,22.90
2022-07-31T07:50:29.486Z,23.00
2022-07-31T07:52:56.843Z,23.10
2022-07-31T07:55:23.792Z,23.20
2022-07-31T07:57:50.703Z,23.30
2022-07-31T08:00:18.016Z,23.40
2022-07-31T08:03:46.883Z,23.40
2022-07-31T08:05:33.159Z,23.60
2022-07-31T08:08:00.011Z,23.60
2022-07-31T08:10:26.887Z,23.60
2022-07-31T08:12:54.795Z,23.70
2022-07-31T08:15:21.601Z,23.80
2022-07-31T08:17:48.419Z,23.80
2022-07-31T08:20:15.157Z,24.00
2022-07-31T08:22:41.971Z,24.20
2022-07-31T08:25:11.213Z,24.40
2022-07-31T08:27:41.918Z,24.50
2022-07-31T08:30:09.961Z,24.50
2022-07-31T08:32:38.434Z,24.70
2022-07-31T08:35:05.727Z,24.90
2022-07-31T08:37:51.716Z,24.90
2022-07-31T08:40:20.692Z,24.90
2022-07-31T08:42:47.756Z,24.90
2022-07-31T08:45:15.201Z,24.90
2022-07-31T08:47:43.785Z,24.90
2022-07-31T08:50:14.119Z,25.20
2022-07-31T08:52:43.447Z,25.30
2022-07-31T08:55:11.238Z,25.50
2022-07-31T08:57:58.245Z,25.70
2022-07-31T09:00:25.367Z,26.00
2022-07-31T09:02:53.132Z,26.30
2022-07-31T09:05:20.481Z,26.50
2022-07-31T09:07:47.255Z,26.80
2022-07-31T09:10:25.074Z,27.10
2022-07-31T09:12:53.051Z,27.20
2022-07-31T09:15:25.825Z,27.30
2022-07-31T09:17:54.263Z,27.40
2022-07-31T09:20:29.411Z,27.30
2022-07-31T09:23:07.236Z,27.10
2022-07-31T09:25:34.185Z,27.20
2022-07-31T09:28:03.026Z,27.60
2022-07-31T09:30:29.857Z,28.20
2022-07-31T09:32:57.543Z,28.50
2022-07-31T09:35:24.345Z,29.00
2022-07-31T09:37:51.218Z,28.90
2022-07-31T09:40:21.027Z,28.80
2022-07-31T09:42:55.449Z,29.00
2022-07-31T09:45:24.266Z,29.20
2022-07-31T09:48:08.570Z,29.40
2022-07-31T09:50:52.301Z,29.50
2022-07-31T09:53:19.791Z,29.20
2022-07-31T09:55:57.790Z,29.00
2022-07-31T09:58:24.735Z,29.10
2022-07-31T10:00:53.559Z,29.70
2022-07-31T10:03:21.364Z,30.00
2022-07-31T10:05:48.663Z,30.50
2022-07-31T10:08:17.535Z,30.50
2022-07-31T10:10:45.200Z,31.10
2022-07-31T10:13:15.431Z,31.30
2022-07-31T10:15:46.611Z,31.10
2022-07-31T10:18:15.492Z,31.70
2022-07-31T10:20:49.262Z,32.10
2022-07-31T10:23:17.951Z,31.60
2022-07-31T10:25:53.796Z,30.70
2022-07-31T10:28:22.153Z,30.20
2022-07-31T10:30:49.935Z,29.50
2022-07-31T10:33:42.443Z,29.20
2022-07-31T10:36:35.333Z,29.10
2022-07-31T10:39:08.645Z,29.80
2022-07-31T10:41:51.237Z,30.40
2022-07-31T10:44:38.227Z,30.70
2022-07-31T10:47:16.209Z,31.50
2022-07-31T10:49:48.757Z,32.50
2022-07-31T10:52:37.219Z,32.90
2022-07-31T10:55:25.767Z,32.80
2022-07-31T10:57:57.230Z,32.10
2022-07-31T11:00:29.677Z,32.20
2022-07-31T11:02:57.201Z,32.50
2022-07-31T11:05:26.243Z,33.50
2022-07-31T11:08:05.043Z,35.10
2022-07-31T11:10:31.867Z,36.10
2022-07-31T11:13:08.246Z,36.30
2022-07-31T11:15:37.513Z,35.20
2022-07-31T11:18:26.773Z,35.40
2022-07-31T11:21:17.856Z,36.10
2022-07-31T11:24:02.237Z,35.60
2022-07-31T11:26:33.532Z,34.60
2022-07-31T11:30:01.157Z,34.10
2022-07-31T11:31:55.343Z,35.00
2022-07-31T11:34:22.083Z,36.00
2022-07-31T11:36:51.441Z,36.70
2022-07-31T11:39:18.553Z,36.70
2022-07-31T11:41:47.311Z,36.80
2022-07-31T11:44:20.986Z,37.10
2022-07-31T11:46:50.945Z,37.80
2022-07-31T11:49:47.959Z,38.30
2022-07-31T11:52:30.799Z,38.20
2022-07-31T11:55:09.346Z,38.20
2022-07-31T11:57:52.363Z,38.30
2022-07-31T12:00:28.899Z,38.50
2022-07-31T12:02:57.880Z,37.80
2022-07-31T12:05:39.034Z,37.30
2022-07-31T12:08:07.833Z,36.80
2022-07-31T12:10:35.378Z,36.40
2022-07-31T12:13:02.644Z,35.80
2022-07-31T12:15:29.623Z,35.60
2022-07-31T12:18:05.322Z,35.10
2022-07-31T12:20:37.209Z,34.80
2022-07-31T12:23:05.736Z,34.40
2022-07-31T12:25:47.413Z,34.20
2022-07-31T12:28:15.557Z,34.80
2022-07-31T12:30:43.346Z,34.80
2022-07-31T12:33:11.878Z,34.90
2022-07-31T12:35:56.335Z,34.80
2022-07-31T12:38:44.832Z,34.60
2022-07-31T12:41:12.942Z,34.60
2022-07-31T12:43:50.005Z,34.70
2022-07-31T12:46:19.432Z,34.90
2022-07-31T12:48:46.586Z,34.70
2022-07-31T12:51:13.496Z,34.80
2022-07-31T12:53:40.334Z,34.60
2022-07-31T12:56:11.888Z,34.50
2022-07-31T12:58:38.639Z,34.40
2022-07-31T13:01:05.751Z,34.30
2022-07-31T13:03:45.981Z,33.70
2022-07-31T13:06:14.122Z,33.10
2022-07-31T13:08:41.023Z,33.10
2022-07-31T13:11:07.760Z,33.00
2022-07-31T13:13:34.624Z,32.40
2022-07-31T13:16:01.430Z,32.20
2022-07-31T13:18:29.976Z,32.30
2022-07-31T13:20:56.747Z,32.20
2022-07-31T13:23:23.738Z,32.00
2022-07-31T13:25:50.524Z,31.90
2022-07-31T13:28:17.270Z,32.10
2022-07-31T13:30:44.186Z,32.30
2022-07-31T13:33:10.965Z,32.20
2022-07-31T13:35:37.742Z,31.80
2022-07-31T13:38:04.552Z,31.80
2022-07-31T13:40:49.785Z,31.80
2022-07-31T13:43:17.168Z,32.00
2022-07-31T13:45:44.178Z,32.10
2022-07-31T13:48:11.059Z,31.80
2022-07-31T13:50:39.913Z,31.20
2022-07-31T13:53:07.105Z,31.10
2022-07-31T13:55:33.938Z,31.20
2022-07-31T13:58:01.676Z,31.40
2022-07-31T14:00:30.211Z,31.80
2022-07-31T14:02:57.504Z,32.40
2022-07-31T14:05:26.669Z,33.20
2022-07-31T14:08:29.560Z,33.80
2022-07-31T14:10:48.407Z,34.10
2022-07-31T14:13:17.785Z,34.00
2022-07-31T14:15:45.443Z,33.70
2022-07-31T14:18:12.290Z,33.70
2022-07-31T14:20:39.237Z,33.60
2022-07-31T14:23:08.731Z,33.60
2022-07-31T14:25:40.228Z,33.60
2022-07-31T14:28:07.829Z,33.30
2022-07-31T14:30:35.065Z,33.10
2022-07-31T14:33:02.165Z,32.80
2022-07-31T14:35:29.105Z,32.90
2022-07-31T14:37:55.880Z,33.00
2022-07-31T14:40:22.907Z,33.00
2022-07-31T14:42:49.626Z,33.40
2022-07-31T14:45:16.396Z,33.60
2022-07-31T14:47:46.268Z,33.50
2022-07-31T14:50:19.049Z,33.40
2022-07-31T14:52:46.706Z,33.50
2022-07-31T14:55:13.788Z,33.70
2022-07-31T14:57:41.622Z,33.80
2022-07-31T15:00:15.158Z,33.90
2022-07-31T15:02:43.255Z,33.90
2022-07-31T15:06:37.470Z,33.40
2022-07-31T15:07:58.665Z,33.00
2022-07-31T15:10:25.667Z,33.10
2022-07-31T15:12:52.411Z,33.20
2022-07-31T15:15:19.269Z,32.90
2022-07-31T15:17:45.986Z,32.70
2022-07-31T15:20:13.382Z,32.60
2022-07-31T15:22:40.167Z,32.70
2022-07-31T15:25:07.574Z,32.60
2022-07-31T15:27:34.329Z,32.40
2022-07-31T15:30:07.151Z,32.30
2022-07-31T15:32:37.192Z,32.00
2022-07-31T15:35:05.833Z,31.70
2022-07-31T15:37:37.583Z,31.50
2022-07-31T15:40:07.180Z,31.40
2022-07-31T15:42:38.238Z,31.40
2022-07-31T15:45:15.291Z,31.30
2022-07-31T15:47:42.878Z,31.10
2022-07-31T15:50:12.248Z,30.80
2022-07-31T15:52:39.992Z,30.90
2022-07-31T15:55:07.939Z,31.00
2022-07-31T15:57:34.729Z,31.10
2022-07-31T16:00:01.685Z,31.60
2022-07-31T16:02:28.476Z,32.00
2022-07-31T16:04:58.530Z,32.10
2022-07-31T16:08:29.095Z,32.00
2022-07-31T16:10:17.931Z,32.10
2022-07-31T16:12:48.263Z,32.20
2022-07-31T16:15:16.833Z,32.00
2022-07-31T16:17:44.654Z,31.90
2022-07-31T16:20:20.744Z,31.80
2022-07-31T16:22:56.389Z,31.80
2022-07-31T16:25:24.049Z,31.80
2022-07-31T16:27:51.518Z,31.70
2022-07-31T16:30:18.309Z,31.20
2022-07-31T16:32:45.103Z,31.00
2022-07-31T16:35:12.390Z,30.70
2022-07-31T16:37:50.315Z,30.70
2022-07-31T16:40:29.442Z,30.60
2022-07-31T16:43:46.893Z,30.40
2022-07-31T16:45:49.950Z,30.40
2022-07-31T16:48:16.824Z,30.30
2022-07-31T16:50:43.584Z,30.20
2022-07-31T16:53:13.553Z,30.10
2022-07-31T16:56:00.950Z,30.10
2022-07-31T16:58:28.673Z,29.90
2022-07-31T17:00:55.588Z,30.00
2022-07-31T17:03:59.023Z,29.90
2022-07-31T17:06:10.387Z,29.90
2022-07-31T17:08:38.197Z,29.90
2022-07-31T17:11:05.347Z,29.90
2022-07-31T17:13:32.459Z,30.00
2022-07-31T17:15:59.227Z,30.10
2022-07-31T17:18:26.406Z,30.10
2022-07-31T17:20:55.785Z,30.10
2022-07-31T17:23:33.152Z,30.20
2022-07-31T17:26:21.039Z,30.40
2022-07-31T17:28:50.291Z,30.50
2022-07-31T17:31:18.248Z,30.60
2022-07-31T17:33:59.058Z,30.40
2022-07-31T17:36:28.492Z,30.20
2022-07-31T17:38:55.919Z,30.00
2022-07-31T17:41:25.114Z,29.80
2022-07-31T17:43:54.230Z,29.60
2022-07-31T17:46:28.238Z,29.50
2022-07-31T17:49:01.672Z,29.40
2022-07-31T17:51:28.574Z,29.20
2022-07-31T17:53:59.611Z,29.20
2022-07-31T17:56:27.118Z,29.10
2022-07-31T17:58:54.034Z,29.00
2022-07-31T18:01:24.379Z,28.90
2022-07-31T18:03:53.872Z,28.80
2022-07-31T18:06:20.588Z,28.70
2022-07-31T18:08:47.487Z,28.60
2022-07-31T18:11:14.247Z,28.60
2022-07-31T18:13:48.713Z,28.60
2022-07-31T18:16:19.141Z,28.50
2022-07-31T18:18:46.396Z,28.40
2022-07-31T18:21:14.143Z,28.30
2022-07-31T18:23:47.298Z,28.20
2022-07-31T18:26:14.950Z,28.20
2022-07-31T18:28:42.304Z,28.10
2022-07-31T18:31:24.153Z,28.10
2022-07-31T18:33:55.855Z,28.10
2022-07-31T18:36:22.675Z,28.00
2022-07-31T18:38:50.163Z,27.90
2022-07-31T18:41:17.026Z,27.80
2022-07-31T18:43:43.871Z,27.70
2022-07-31T18:46:10.646Z,27.60
2022-07-31T18:48:37.531Z,27.60
2022-07-31T18:51:05.498Z,27.60
2022-07-31T18:53:33.427Z,27.50
2022-07-31T18:56:00.433Z,27.40
2022-07-31T18:58:27.159Z,27.30
2022-07-31T19:00:55.191Z,27.40
2022-07-31T19:03:23.526Z,27.20
2022-07-31T19:05:52.808Z,27.20
2022-07-31T19:08:20.549Z,27.10
2022-07-31T19:10:49.372Z,27.10
2022-07-31T19:13:18.963Z,27.10
2022-07-31T19:15:52.733Z,27.10
2022-07-31T19:18:24.460Z,27.00
2022-07-31T19:21:16.764Z,26.90
2022-07-31T19:23:43.519Z,26.90
2022-07-31T19:26:10.795Z,26.90
2022-07-31T19:28:39.533Z,26.80
2022-07-31T19:31:06.613Z,26.80
2022-07-31T19:33:33.373Z,26.80
2022-07-31T19:36:02.397Z,26.70
2022-07-31T19:38:38.318Z,26.70
2022-07-31T19:41:05.375Z,26.60
2022-07-31T19:43:33.136Z,26.60
2022-07-31T19:46:11.345Z,26.50
2022-07-31T19:48:48.542Z,26.50
2022-07-31T19:51:16.222Z,26.50
2022-07-31T19:53:44.474Z,26.50
2022-07-31T19:56:16.844Z,26.50
2022-07-31T19:58:47.063Z,26.50
2022-07-31T20:01:14.439Z,26.50
2022-07-31T20:03:41.585Z,26.50
2022-07-31T20:06:08.594Z,26.50
2022-07-31T20:08:35.373Z,26.50
2022-07-31T20:11:04.439Z,26.50
2022-07-31T20:13:37.618Z,26.60
2022-07-31T20:16:04.820Z,26.60
2022-07-31T20:18:31.784Z,26.50
2022-07-31T20:21:09.315Z,26.60
2022-07-31T20:23:38.695Z,26.60
2022-07-31T20:26:07.816Z,26.60
2022-07-31T20:28:35.645Z,26.50
2022-07-31T20:31:02.563Z,26.40
2022-07-31T20:33:29.358Z,26.30
2022-07-31T20:35:56.091Z,26.20
2022-07-31T20:38:24.110Z,26.00
2022-07-31T20:40:55.303Z,25.90
2022-07-31T20:43:24.452Z,25.70
2022-07-31T20:45:52.413Z,25.50
2022-07-31T20:48:21.854Z,25.40
2022-07-31T20:50:48.816Z,25.30
2022-07-31T20:53:16.814Z,25.10
2022-07-31T20:55:49.429Z,24.90
2022-07-31T20:58:17.810Z,24.70
2022-07-31T21:00:45.471Z,24.60
2022-07-31T21:03:12.392Z,24.40
2022-07-31T21:05:39.173Z,24.20
2022-07-31T21:08:06.205Z,24.10
2022-07-31T21:10:33.819Z,24.00
2022-07-31T21:13:00.565Z,23.90
2022-07-31T21:15:44.038Z,23.80
2022-07-31T21:18:16.976Z,23.70
2022-07-31T21:20:51.289Z,23.60
2022-07-31T21:23:24.951Z,23.50
2022-07-31T21:25:57.164Z,23.30
2022-07-31T21:28:26.872Z,23.20
2022-07-31T21:30:55.909Z,23.10
2022-07-31T21:33:24.560Z,23.10
2022-07-31T21:35:51.639Z,23.00
2022-07-31T21:38:19.290Z,22.90
2022-07-31T21:40:47.131Z,22.90
2022-07-31T21:43:18.570Z,22.80
2022-07-31T21:45:55.541Z,22.80
2022-07-31T21:48:26.447Z,22.70
2022-07-31T21:50:54.277Z,22.70
2022-07-31T21:53:21.286Z,22.60
2022-07-31T21:55:48.261Z,22.60
2022-07-31T21:58:15.377Z,22.40
2022-07-31T22:00:42.612Z,22.40
2022-07-31T22:03:09.391Z,22.40
2022-07-31T22:05:54.606Z,22.30
2022-07-31T22:08:21.525Z,22.20
2022-07-31T22:10:51.070Z,22.20
2022-07-31T22:13:19.279Z,22.10
2022-07-31T22:15:59.399Z,22.10
2022-07-31T22:18:29.368Z,22.10
2022-07-31T22:20:57.095Z,22.10
2022-07-31T22:23:24.155Z,22.00
2022-07-31T22:25:51.201Z,22.00
2022-07-31T22:28:20.586Z,22.00
2022-07-31T22:30:47.931Z,21.90
2022-07-31T22:33:14.796Z,21.80
2022-07-31T22:35:41.697Z,21.80
2022-07-31T22:38:09.169Z,21.80
2022-07-31T22:40:36.018Z,21.80
2022-07-31T22:43:03.547Z,21.90
2022-07-31T22:45:30.551Z,21.80
2022-07-31T22:47:58.026Z,21.90
2022-07-31T22:50:25.172Z,22.00
2022-07-31T22:52:53.186Z,22.00
2022-07-31T22:55:19.928Z,22.10
2022-07-31T22:57:46.724Z,22.20
